createdAt,value
2019-04-16T00:00:55.726Z,67.97
2019-04-16T00:01:54.344Z,67.58
2019-04-16T00:02:53.089Z,67.68
2019-04-16T00:03:53.879Z,67.87
2019-04-16T00:04:50.393Z,67.97
2019-04-16T00:05:48.965Z,68.16
2019-04-16T00:06:47.661Z,67.77
2019-04-16T00:07:46.227Z,67.97
2019-04-16T00:08:44.810Z,67.97
2019-04-16T00:09:43.381Z,67.77
2019-04-16T00:10:41.905Z,67.58
2019-04-16T00:11:40.532Z,67.68
2019-04-16T00:12:39.258Z,67.49
2019-04-16T00:13:37.848Z,67.68
2019-04-16T00:14:36.398Z,67.4
2019-04-16T00:15:34.945Z,67.49
2019-04-16T00:16:33.569Z,67.87
2019-04-16T00:17:32.167Z,67.58
2019-04-16T00:18:30.879Z,67.3
2019-04-16T00:19:29.454Z,67.49
2019-04-16T00:20:28.061Z,67.21
2019-04-16T00:21:26.738Z,67.36
2019-04-16T00:22:25.345Z,67.21
2019-04-16T00:23:23.919Z,67.11
2019-04-16T00:24:22.712Z,67.74
2019-04-16T00:25:21.331Z,67.49
2019-04-16T00:26:19.951Z,67.36
2019-04-16T00:27:18.493Z,67.83
2019-04-16T00:28:17.094Z,67.55
2019-04-16T00:29:15.671Z,67.93
2019-04-16T00:30:14.232Z,67.93
2019-04-16T00:31:12.868Z,68.03
2019-04-16T00:32:11.500Z,67.93
2019-04-16T00:33:10.632Z,68.03
2019-04-16T00:34:13.226Z,67.74
2019-04-16T00:35:07.365Z,67.83
2019-04-16T00:36:05.929Z,67.74
2019-04-16T00:37:04.550Z,67.93
2019-04-16T00:38:03.231Z,67.83
2019-04-16T00:39:01.781Z,67.46
2019-04-16T00:40:00.307Z,67.83
2019-04-16T00:41:01.069Z,67.65
2019-04-16T00:41:57.451Z,67.93
2019-04-16T00:42:55.972Z,68.6
2019-04-16T00:43:55.093Z,68.22
2019-04-16T00:44:53.624Z,68.6
2019-04-16T00:45:52.204Z,67.65
2019-04-16T00:46:50.772Z,68.51
2019-04-16T00:47:51.322Z,68.7
2019-04-16T00:48:48.007Z,67.74
2019-04-16T00:49:46.577Z,67.74
2019-04-16T00:50:45.326Z,67.93
2019-04-16T00:51:43.861Z,67.46
2019-04-16T00:52:42.469Z,68.41
2019-04-16T00:53:41.339Z,68.32
2019-04-16T00:54:42.334Z,68.79
2019-04-16T00:55:38.520Z,68.41
2019-04-16T00:56:37.097Z,68.22
2019-04-16T00:57:35.675Z,68.12
2019-04-16T00:58:34.233Z,67.83
2019-04-16T00:59:33.050Z,68.51
2019-04-16T01:00:31.620Z,68.22
2019-04-16T01:01:30.202Z,68.03
2019-04-16T01:02:28.982Z,68.51
2019-04-16T01:03:27.600Z,67.74
2019-04-16T01:04:26.172Z,67.83
2019-04-16T01:05:24.729Z,67.83
2019-04-16T01:06:23.332Z,67.83
2019-04-16T01:07:21.948Z,67.46
2019-04-16T01:08:20.699Z,67.83
2019-04-16T01:09:19.295Z,67.74
2019-04-16T01:10:17.851Z,67.83
2019-04-16T01:11:16.555Z,67.65
2019-04-16T01:12:15.235Z,67.65
2019-04-16T01:13:13.816Z,67.65
2019-04-16T01:14:12.362Z,67.65
2019-04-16T01:15:10.882Z,67.55
2019-04-16T01:16:09.426Z,67.65
2019-04-16T01:17:08.001Z,67.93
2019-04-16T01:18:07.734Z,67.46
2019-04-16T01:19:09.445Z,67.55
2019-04-16T01:20:03.692Z,67.83
2019-04-16T01:21:02.418Z,67.07
2019-04-16T01:22:00.993Z,67.46
2019-04-16T01:22:59.553Z,67.27
2019-04-16T01:23:58.138Z,67.27
2019-04-16T01:24:56.896Z,67.27
2019-04-16T01:25:56.235Z,67.46
2019-04-16T01:26:55.335Z,67.65
2019-04-16T01:27:52.626Z,67.36
2019-04-16T01:28:51.205Z,67.46
2019-04-16T01:29:49.878Z,67.65
2019-04-16T01:30:48.635Z,67.46
2019-04-16T01:31:47.329Z,67.65
2019-04-16T01:32:45.887Z,67.07
2019-04-16T01:33:46.575Z,67.17
2019-04-16T01:34:43.062Z,67.07
2019-04-16T01:35:41.732Z,67.17
2019-04-16T01:36:40.314Z,67.55
2019-04-16T01:37:38.895Z,67.65
2019-04-16T01:38:37.495Z,67.07
2019-04-16T01:39:36.080Z,67.07
2019-04-16T01:40:34.722Z,67.07
2019-04-16T01:41:33.397Z,67.04
2019-04-16T01:42:31.918Z,67.42
2019-04-16T01:43:30.642Z,67.33
2019-04-16T01:44:29.697Z,67.04
2019-04-16T01:45:29.751Z,67.42
2019-04-16T01:46:26.473Z,67.33
2019-04-16T01:47:25.088Z,67.07
2019-04-16T01:48:23.648Z,67.65
2019-04-16T01:49:22.226Z,67.46
2019-04-16T01:50:20.933Z,67.65
2019-04-16T01:51:19.499Z,67.17
2019-04-16T01:52:18.906Z,67.46
2019-04-16T01:53:18.280Z,67.42
2019-04-16T01:54:15.279Z,67.61
2019-04-16T01:55:13.797Z,67.42
2019-04-16T01:56:12.341Z,67.04
2019-04-16T01:57:11.083Z,67.23
2019-04-16T01:58:09.547Z,67.33
2019-04-16T01:59:08.125Z,67.52
2019-04-16T02:00:08.035Z,67.14
2019-04-16T02:01:05.210Z,67.42
2019-04-16T02:02:03.989Z,67.23
2019-04-16T02:03:02.393Z,67.04
2019-04-16T02:04:01.058Z,67.61
2019-04-16T02:04:59.603Z,67.8
2019-04-16T02:05:58.147Z,67.52
2019-04-16T02:06:57.101Z,67.52
2019-04-16T02:09:34.574Z,68.85
2019-04-16T02:10:30.671Z,68.85
2019-04-16T02:11:29.302Z,68.76
2019-04-16T02:12:27.872Z,68.85
2019-04-16T02:13:26.408Z,69.81
2019-04-16T02:14:24.972Z,70.38
2019-04-16T02:15:23.511Z,70.28
2019-04-16T02:16:22.299Z,69.52
2019-04-16T02:17:20.913Z,68.85
2019-04-16T02:18:19.662Z,68.95
2019-04-16T02:19:18.214Z,69.23
2019-04-16T02:20:16.925Z,69.23
2019-04-16T02:21:15.479Z,69.23
2019-04-16T02:22:14.180Z,69.04
2019-04-16T02:23:13.426Z,68.95
2019-04-16T02:24:11.538Z,68.95
2019-04-16T02:25:10.139Z,68.66
2019-04-16T02:26:08.831Z,67.9
2019-04-16T02:27:07.555Z,68.18
2019-04-16T02:28:06.091Z,68.09
2019-04-16T02:29:04.643Z,68.09
2019-04-16T02:30:04.809Z,68.66
2019-04-16T02:31:01.783Z,68.09
2019-04-16T02:32:00.331Z,67.9
2019-04-16T02:32:58.892Z,67.8
2019-04-16T02:33:57.644Z,67.71
2019-04-16T02:34:56.210Z,67.8
2019-04-16T02:35:54.948Z,67.52
2019-04-16T02:37:00.244Z,67.52
2019-04-16T02:37:52.273Z,67.71
2019-04-16T02:38:53.070Z,67.14
2019-04-16T02:39:49.676Z,67.71
2019-04-16T02:40:52.742Z,67.71
2019-04-16T02:41:46.525Z,67.52
2019-04-16T02:42:45.288Z,67.42
2019-04-16T02:43:43.878Z,67.61
2019-04-16T02:44:48.418Z,67.8
2019-04-16T02:45:41.211Z,67.42
2019-04-16T02:46:39.793Z,67.99
2019-04-16T02:47:41.543Z,67.8
2019-04-16T02:48:36.960Z,67.9
2019-04-16T02:49:35.507Z,67.9
2019-04-16T02:50:34.176Z,67.52
2019-04-16T02:51:36.504Z,67.9
2019-04-16T02:52:31.608Z,67.71
2019-04-16T02:53:30.179Z,67.99
2019-04-16T02:54:33.735Z,67.42
2019-04-16T02:55:27.519Z,67.52
2019-04-16T02:56:26.039Z,68.47
2019-04-16T02:57:26.405Z,67.99
2019-04-16T02:58:23.153Z,68.85
2019-04-16T02:59:21.706Z,69.04
2019-04-16T03:00:20.261Z,68.85
2019-04-16T03:01:20.817Z,68.57
2019-04-16T03:02:17.502Z,68.47
2019-04-16T03:03:16.045Z,68.85
2019-04-16T03:04:14.710Z,68.66
2019-04-16T03:05:13.289Z,68.95
2019-04-16T03:06:11.996Z,68.85
2019-04-16T03:07:10.566Z,69.04
2019-04-16T03:08:09.297Z,68.95
2019-04-16T03:09:08.789Z,68.85
2019-04-16T03:10:06.645Z,68.57
2019-04-16T03:11:05.304Z,68.66
2019-04-16T03:12:03.836Z,68.85
2019-04-16T03:13:02.495Z,69.14
2019-04-16T03:14:01.075Z,68.85
2019-04-16T03:15:01.043Z,68.95
2019-04-16T03:15:58.258Z,68.91
2019-04-16T03:16:56.839Z,68.66
2019-04-16T03:17:55.500Z,68.85
2019-04-16T03:18:54.053Z,68.76
2019-04-16T03:19:52.725Z,68.85
2019-04-16T03:20:52.442Z,68.76
2019-04-16T03:21:49.930Z,68.85
2019-04-16T03:22:48.524Z,68.38
2019-04-16T03:23:47.214Z,68.57
2019-04-16T03:24:45.811Z,68.38
2019-04-16T03:25:45.103Z,69.04
2019-04-16T03:26:44.291Z,68.85
2019-04-16T03:27:42.127Z,69.04
2019-04-16T03:28:40.856Z,68.85
2019-04-16T03:29:39.471Z,68.95
2019-04-16T03:30:42.010Z,69.04
2019-04-16T03:31:36.608Z,68.85
2019-04-16T03:32:36.057Z,68.76
2019-04-16T03:33:33.866Z,68.66
2019-04-16T03:34:32.503Z,69.14
2019-04-16T03:35:31.172Z,68.76
2019-04-16T03:36:30.283Z,68.66
2019-04-16T03:37:30.207Z,68.76
2019-04-16T03:38:27.017Z,69.14
2019-04-16T03:39:25.983Z,69.33
2019-04-16T03:40:25.915Z,68.66
2019-04-16T03:41:24.855Z,69.04
2019-04-16T03:42:24.386Z,68.66
2019-04-16T03:43:20.485Z,68.76
2019-04-16T03:44:19.061Z,68.85
2019-04-16T03:45:17.649Z,68.66
2019-04-16T03:46:16.367Z,68.76
2019-04-16T03:47:15.602Z,68.66
2019-04-16T03:48:13.423Z,68.85
2019-04-16T03:49:11.980Z,68.76
2019-04-16T03:50:10.769Z,68.76
2019-04-16T03:51:09.293Z,68.95
2019-04-16T03:52:09.282Z,68.76
2019-04-16T03:53:06.609Z,68.95
2019-04-16T03:54:05.192Z,68.95
2019-04-16T03:55:03.633Z,69.62
2019-04-16T03:56:02.214Z,68.85
2019-04-16T03:57:02.043Z,69.52
2019-04-16T03:57:59.410Z,68.95
2019-04-16T03:58:57.979Z,69.81
2019-04-16T03:59:56.539Z,69.81
2019-04-16T04:00:55.072Z,69.62
2019-04-16T04:01:53.745Z,69.33
2019-04-16T04:02:55.019Z,69.81
2019-04-16T04:03:50.879Z,69.43
2019-04-16T04:04:49.623Z,69.04
2019-04-16T04:05:48.088Z,69.04
2019-04-16T04:06:46.955Z,69.04
2019-04-16T04:09:27.016Z,69.23
2019-04-16T04:10:30.640Z,69.33
2019-04-16T04:11:24.255Z,69.14
2019-04-16T04:12:23.025Z,69.33
2019-04-16T04:13:21.607Z,69.23
2019-04-16T04:14:23.208Z,69.04
2019-04-16T04:15:18.893Z,69.43
2019-04-16T04:16:17.473Z,68.66
2019-04-16T04:17:16.225Z,68.76
2019-04-16T04:18:14.601Z,69.04
2019-04-16T04:19:15.077Z,68.76
2019-04-16T04:20:14.549Z,68.76
2019-04-16T04:21:10.362Z,68.95
2019-04-16T04:22:08.935Z,68.85
2019-04-16T04:24:32.210Z,69.04
2019-04-16T04:25:30.371Z,69.43
2019-04-16T04:27:53.216Z,69.96
2019-04-16T04:28:52.629Z,70
2019-04-16T04:37:51.535Z,71.48
2019-04-16T04:38:50.201Z,71.58
2019-04-16T04:39:48.885Z,71.01
2019-04-16T04:40:50.252Z,71.58
2019-04-16T04:41:46.081Z,71.96
2019-04-16T04:42:44.657Z,71.68
2019-04-16T04:43:43.240Z,71.68
2019-04-16T04:44:41.827Z,71.77
2019-04-16T04:45:41.477Z,71.68
2019-04-16T04:46:39.299Z,72.16
2019-04-16T04:47:37.875Z,71.87
2019-04-16T04:48:36.516Z,72.34
2019-04-16T04:49:35.287Z,72.82
2019-04-16T04:50:35.247Z,73.21
2019-04-16T04:51:32.436Z,72.44
2019-04-16T04:52:31.131Z,72.53
2019-04-16T04:53:29.714Z,72.16
2019-04-16T04:54:28.398Z,72.34
2019-04-16T04:55:27.128Z,72.06
2019-04-16T04:56:27.935Z,71.81
2019-04-16T04:57:24.264Z,71.87
2019-04-16T04:58:22.801Z,72.09
2019-04-16T04:59:21.369Z,71.81
2019-04-16T05:00:20.119Z,71.72
2019-04-16T05:01:18.775Z,71.14
2019-04-16T05:02:17.420Z,71.14
2019-04-16T05:04:57.548Z,71.43
2019-04-16T05:05:56.735Z,71.91
2019-04-16T05:06:57.207Z,71.23
2019-04-16T05:07:53.273Z,71.04
2019-04-16T05:08:51.857Z,71.62
2019-04-16T05:09:50.441Z,71.43
2019-04-16T05:10:58.563Z,72
2019-04-16T05:11:49.428Z,71.91
2019-04-16T05:12:46.297Z,71.91
2019-04-16T05:13:44.974Z,72.19
2019-04-16T05:14:43.681Z,72.48
2019-04-16T05:15:42.240Z,72.28
2019-04-16T05:16:40.940Z,72.38
2019-04-16T05:17:39.530Z,72.19
2019-04-16T05:18:41.732Z,72.76
2019-04-16T05:28:15.338Z,73.08
2019-04-16T05:29:16.966Z,73.94
2019-04-16T05:30:12.470Z,74.42
2019-04-16T05:31:11.141Z,75.76
2019-04-16T05:32:09.718Z,75.95
2019-04-16T05:33:08.248Z,76.33
2019-04-16T05:34:07.005Z,76.42
2019-04-16T05:35:08.915Z,77.86
2019-04-16T05:36:04.246Z,77.57
2019-04-16T05:37:02.895Z,77.76
2019-04-16T05:38:01.599Z,77.47
2019-04-16T05:39:03.425Z,78.52
2019-04-16T05:39:59.540Z,87.49
2019-04-16T05:40:57.654Z,88.11
2019-04-16T05:41:56.239Z,82.15
2019-04-16T05:42:55.782Z,75.37
2019-04-16T05:43:54.004Z,73.94
2019-04-16T05:44:52.570Z,75.66
2019-04-16T05:45:51.247Z,75.66
2019-04-16T05:46:49.791Z,74.61
2019-04-16T05:47:48.968Z,73.37
2019-04-16T05:48:47.054Z,73.85
2019-04-16T05:49:45.687Z,72.99
2019-04-16T05:50:44.241Z,73.47
2019-04-16T05:51:42.847Z,73.41
2019-04-16T05:52:41.402Z,73.69
2019-04-16T05:53:40.241Z,73.5
2019-04-16T05:54:41.404Z,73.32
2019-04-16T05:55:37.651Z,73.79
2019-04-16T05:56:36.207Z,72.45
2019-04-16T05:57:34.788Z,72.64
2019-04-16T05:58:33.383Z,74.65
2019-04-16T05:59:33.749Z,78.28
2019-04-16T06:00:30.495Z,79.1
2019-04-16T06:01:29.256Z,79.52
2019-04-16T06:02:27.789Z,78.09
2019-04-16T06:03:26.405Z,78.28
2019-04-16T06:04:25.653Z,78.66
2019-04-16T06:05:26.735Z,79.61
2019-04-16T06:06:22.199Z,92.97
2019-04-16T06:07:21.006Z,99.99
2019-04-16T06:08:19.581Z,99.99
2019-04-16T06:09:18.134Z,99.99
2019-04-16T06:10:17.664Z,99.99
2019-04-16T06:11:26.959Z,99.99
2019-04-16T06:12:14.121Z,99.99
2019-04-16T06:13:13.218Z,96.17
2019-04-16T06:14:16.543Z,85.58
2019-04-16T06:15:09.991Z,84.14
2019-04-16T06:16:08.532Z,83.81
2019-04-16T06:17:07.199Z,98.8
2019-04-16T06:18:06.166Z,99.99
2019-04-16T06:19:04.335Z,99.99
2019-04-16T06:20:03.194Z,99.99
2019-04-16T06:21:01.779Z,99.99
2019-04-16T06:22:00.446Z,99.99
2019-04-16T06:23:00.813Z,99.99
2019-04-16T06:24:03.016Z,99.99
2019-04-16T06:24:56.498Z,99.99
2019-04-16T06:27:36.587Z,86.05
2019-04-16T06:28:35.285Z,93.79
2019-04-16T06:29:33.855Z,99.99
2019-04-16T06:30:33.755Z,99.99
2019-04-16T06:31:31.227Z,99.99
2019-04-16T06:32:29.788Z,99.99
2019-04-16T06:33:28.569Z,99.99
2019-04-16T06:34:27.366Z,99.99
2019-04-16T06:35:25.826Z,87.05
2019-04-16T06:36:24.406Z,83.99
2019-04-16T06:37:26.737Z,80.55
2019-04-16T06:38:21.715Z,78.36
2019-04-16T06:39:20.383Z,77.3
2019-04-16T06:40:18.973Z,75.39
2019-04-16T06:41:17.527Z,74.34
2019-04-16T06:42:20.892Z,73.77
2019-04-16T06:43:14.755Z,74.15
2019-04-16T06:44:13.436Z,74.15
2019-04-16T06:45:11.992Z,72.75
2019-04-16T06:46:10.572Z,72.56
2019-04-16T06:47:11.057Z,71.51
2019-04-16T06:48:12.728Z,71.13
2019-04-16T06:49:06.341Z,70.27
2019-04-16T06:50:04.999Z,68.77
2019-04-16T06:56:01.821Z,71.68
2019-04-16T06:57:00.367Z,69.67
2019-04-16T06:57:59.345Z,70.43
2019-04-16T06:58:58.181Z,84.22
2019-04-16T06:59:56.196Z,81.15
2019-04-16T07:00:54.932Z,84.31
2019-04-16T07:01:53.442Z,81.34
2019-04-16T07:03:02.067Z,90.44
2019-04-16T07:03:50.672Z,85.5
2019-04-16T07:04:49.447Z,85.21
2019-04-16T07:05:47.980Z,83.3
2019-04-16T07:06:46.528Z,74.3
2019-04-16T07:07:46.711Z,72.29
2019-04-16T07:08:43.771Z,70.37
2019-04-16T07:09:44.357Z,70.28
2019-04-16T07:10:44.542Z,88.85
2019-04-16T07:11:39.552Z,94.98
2019-04-16T07:12:39.144Z,99.99
2019-04-16T07:13:41.858Z,99.99
2019-04-16T07:14:36.121Z,92.06
2019-04-16T07:15:33.990Z,99.99
2019-04-16T07:16:32.541Z,99.99
2019-04-16T07:17:33.571Z,99.99
2019-04-16T07:18:29.789Z,99.99
2019-04-16T07:19:28.360Z,99.99
2019-04-16T07:20:27.043Z,99.99
2019-04-16T07:21:25.555Z,99.99
2019-04-16T07:22:24.109Z,99.99
2019-04-16T07:23:24.599Z,81.13
2019-04-16T07:24:22.803Z,72.61
2019-04-16T07:25:20.803Z,67.41
2019-04-16T07:26:19.120Z,67.63
2019-04-16T07:27:19.927Z,67.54
2019-04-16T07:28:16.372Z,72.23
2019-04-16T07:29:15.034Z,73.09
2019-04-16T07:30:13.775Z,75.2
2019-04-16T07:31:14.698Z,72.52
2019-04-16T07:32:10.875Z,72.42
2019-04-16T07:33:09.596Z,76.54
2019-04-16T07:34:08.139Z,70.12
2019-04-16T07:35:06.760Z,67.15
2019-04-16T07:36:05.315Z,66.19
2019-04-16T07:37:03.869Z,64.76
2019-04-16T07:38:05.077Z,64.37
2019-04-16T07:39:01.150Z,65.23
2019-04-16T07:39:59.782Z,63.89
2019-04-16T07:40:58.338Z,64.56
2019-04-16T07:42:08.065Z,64.76
2019-04-16T07:42:58.852Z,66.35
2019-04-16T07:43:54.607Z,68.21
2019-04-16T07:44:54.980Z,67.63
2019-04-16T07:45:51.400Z,65.33
2019-04-16T07:46:49.988Z,63.99
2019-04-16T07:47:51.614Z,63.67
2019-04-16T07:48:47.111Z,62.71
2019-04-16T07:49:45.686Z,63.57
2019-04-16T07:50:44.276Z,64.66
2019-04-16T07:51:43.002Z,64.76
2019-04-16T07:52:42.607Z,65.97
2019-04-16T07:53:40.227Z,78.64
2019-04-16T07:54:38.867Z,79.99
2019-04-16T07:55:37.724Z,74.43
2019-04-16T07:56:36.447Z,78.07
2019-04-16T07:57:35.093Z,70.31
2019-04-16T07:58:33.780Z,73.28
2019-04-16T07:59:32.989Z,72.61
2019-04-16T08:00:31.090Z,68.65
2019-04-16T08:01:29.728Z,67.5
2019-04-16T08:02:28.333Z,65.68
2019-04-16T08:03:27.613Z,63.86
2019-04-16T08:04:29.133Z,64.12
2019-04-16T08:05:27.401Z,86.46
2019-04-16T08:06:22.923Z,99.99
2019-04-16T08:07:21.514Z,99.99
2019-04-16T08:08:24.265Z,99.99
2019-04-16T08:09:18.657Z,88.03
2019-04-16T08:10:17.250Z,86.5
2019-04-16T08:11:15.873Z,86.6
2019-04-16T08:12:29.205Z,79.22
2019-04-16T08:13:14.110Z,75.1
2019-04-16T08:14:14.525Z,72.9
2019-04-16T08:15:14.886Z,70.21
2019-04-16T08:16:10.798Z,68.78
2019-04-16T08:17:09.384Z,68.78
2019-04-16T08:18:07.971Z,67.63
2019-04-16T08:19:06.718Z,66
2019-04-16T08:20:05.342Z,67.31
2019-04-16T08:21:09.925Z,67.21
2019-04-16T08:22:02.569Z,67.5
2019-04-16T08:23:01.474Z,67.21
2019-04-16T08:24:00.115Z,71.14
2019-04-16T08:25:02.854Z,75.64
2019-04-16T08:26:03.011Z,84.49
2019-04-16T08:26:55.949Z,74.82
2019-04-16T08:27:54.929Z,72.03
2019-04-16T08:28:53.101Z,71.17
2019-04-16T08:29:51.623Z,67.34
2019-04-16T08:30:50.164Z,65.62
2019-04-16T08:31:48.783Z,65.33
2019-04-16T08:32:48.851Z,65.62
2019-04-16T08:33:46.024Z,64.66
2019-04-16T08:34:44.660Z,63.42
2019-04-16T08:35:43.446Z,63.8
2019-04-16T08:36:41.954Z,63.7
2019-04-16T08:37:48.633Z,63.06
2019-04-16T08:38:39.053Z,74.08
2019-04-16T08:39:39.772Z,94.69
2019-04-16T08:40:36.182Z,78.59
2019-04-16T08:41:34.810Z,71.98
2019-04-16T08:42:43.823Z,79.16
2019-04-16T08:43:32.209Z,85.34
2019-04-16T08:44:35.036Z,93.21
2019-04-16T08:45:29.623Z,90.42
2019-04-16T08:46:28.469Z,79.78
2019-04-16T08:47:26.773Z,70.44
2019-04-16T08:48:25.645Z,66.42
2019-04-16T08:49:24.223Z,64.72
2019-04-16T08:50:25.760Z,64.15
2019-04-16T08:51:29.989Z,63.48
2019-04-16T08:52:20.081Z,63.06
2019-04-16T08:53:18.638Z,64.22
2019-04-16T08:54:18.129Z,64.02
2019-04-16T08:55:15.895Z,64.4
2019-04-16T08:56:14.598Z,76.39
2019-04-16T08:57:13.368Z,75.9
2019-04-16T08:58:12.701Z,83.71
2019-04-16T08:59:11.182Z,89.47
2019-04-16T09:00:14.055Z,97.04
2019-04-16T09:01:08.344Z,86.11
2019-04-16T09:02:07.045Z,99.99
2019-04-16T09:03:05.697Z,94.45
2019-04-16T09:04:04.317Z,76.9
2019-04-16T09:05:05.827Z,70.29
2019-04-16T09:06:03.895Z,68.52
2019-04-16T09:07:11.037Z,65.46
2019-04-16T09:08:11.247Z,67.09
2019-04-16T09:09:11.041Z,77.19
2019-04-16T09:09:57.601Z,73.93
2019-04-16T09:10:54.689Z,69.13
2019-04-16T09:11:53.477Z,68.27
2019-04-16T09:13:02.911Z,68.18
2019-04-16T09:13:50.570Z,75.18
2019-04-16T09:14:54.693Z,74.22
2019-04-16T09:15:47.838Z,68.85
2019-04-16T09:16:46.407Z,67.5
2019-04-16T09:17:45.241Z,66.26
2019-04-16T09:18:43.843Z,67.6
2019-04-16T09:19:42.393Z,84.77
2019-04-16T09:20:41.096Z,83.18
2019-04-16T09:21:43.021Z,74.26
2019-04-16T09:22:48.597Z,66.1
2019-04-16T09:23:36.955Z,63.99
2019-04-16T09:24:40.090Z,63.22
2019-04-16T09:25:34.385Z,63.32
2019-04-16T09:26:33.224Z,65.14
2019-04-16T09:27:34.091Z,73.1
2019-04-16T09:28:31.846Z,68.79
2019-04-16T09:29:28.968Z,70.64
2019-04-16T09:30:27.474Z,72.28
2019-04-16T09:31:26.027Z,71.8
2019-04-16T09:32:28.114Z,76.12
2019-04-16T09:33:23.442Z,78.7
2019-04-16T09:34:22.226Z,71.61
2019-04-16T09:37:02.965Z,63.64
2019-04-16T09:38:01.638Z,63.09
2019-04-16T09:39:00.222Z,64.02
2019-04-16T09:39:58.802Z,63.83
2019-04-16T09:40:57.515Z,81.82
2019-04-16T09:41:56.075Z,86.72
2019-04-16T09:42:54.589Z,91.42
2019-04-16T09:43:53.599Z,83.74
2019-04-16T09:44:51.807Z,93.68
2019-04-16T09:45:50.383Z,82.68
2019-04-16T09:46:51.381Z,89.64
2019-04-16T09:47:47.747Z,93.87
2019-04-16T09:48:46.308Z,88.59
2019-04-16T09:49:45.013Z,89.36
2019-04-16T09:50:47.469Z,81.57
2019-04-16T09:51:42.117Z,84.07
2019-04-16T09:52:40.673Z,72.64
2019-04-16T09:53:40.250Z,66.2
2019-04-16T09:54:38.065Z,63.41
2019-04-16T09:55:36.735Z,62.9
2019-04-16T09:56:35.362Z,62.23
2019-04-16T09:57:33.931Z,62.93
2019-04-16T09:58:34.820Z,62.74
2019-04-16T09:59:31.191Z,62.07
2019-04-16T10:00:29.893Z,62.84
2019-04-16T10:01:28.459Z,62.07
2019-04-16T10:02:27.212Z,62.07
2019-04-16T10:03:28.129Z,62.26
2019-04-16T10:04:24.372Z,61.97
2019-04-16T10:05:23.363Z,61.58
2019-04-16T10:06:22.138Z,61.49
2019-04-16T10:07:20.446Z,64.09
2019-04-16T10:08:18.991Z,64.18
2019-04-16T10:09:21.565Z,67.7
2019-04-16T10:10:16.227Z,67.8
2019-04-16T10:11:16.782Z,70.43
2019-04-16T10:12:13.645Z,74.85
2019-04-16T10:13:12.181Z,78.69
2019-04-16T10:14:10.909Z,85.71
2019-04-16T10:15:09.616Z,93.01
2019-04-16T10:16:08.178Z,81.38
2019-04-16T10:17:06.782Z,85.22
2019-04-16T10:18:05.334Z,87.05
2019-04-16T10:19:07.593Z,82.43
2019-04-16T10:20:02.559Z,85.94
2019-04-16T10:21:01.256Z,80.55
2019-04-16T10:21:59.802Z,84.5
2019-04-16T10:22:58.333Z,84.4
2019-04-16T10:23:57.003Z,79.11
2019-04-16T10:24:55.588Z,73.83
2019-04-16T10:25:54.173Z,69.69
2019-04-16T10:26:52.706Z,77.42
2019-04-16T10:27:51.307Z,82.48
2019-04-16T10:30:31.647Z,75.69
2019-04-16T10:31:30.249Z,73
2019-04-16T10:32:28.967Z,72.32
2019-04-16T10:33:27.604Z,80.3
2019-04-16T10:34:26.212Z,74.05
2019-04-16T10:35:24.773Z,75.69
2019-04-16T10:36:23.385Z,70.59
2019-04-16T10:37:22.174Z,66.17
2019-04-16T10:38:20.493Z,64.63
2019-04-16T10:39:19.071Z,64.08
2019-04-16T10:40:17.826Z,63.95
2019-04-16T10:41:16.314Z,62.8
2019-04-16T10:42:14.893Z,64.37
2019-04-16T10:43:13.616Z,66.88
2019-04-16T10:44:12.195Z,65.14
2019-04-16T10:45:10.799Z,62.83
2019-04-16T10:46:09.820Z,71.01
2019-04-16T10:47:07.991Z,65.05
2019-04-16T10:48:06.568Z,61
2019-04-16T10:49:05.153Z,61.49
2019-04-16T10:50:03.684Z,61
2019-04-16T10:51:02.224Z,60.59
2019-04-16T10:52:01.165Z,62.74
2019-04-16T10:52:59.787Z,61.39
2019-04-16T10:53:58.541Z,61
2019-04-16T10:54:57.083Z,60.14
2019-04-16T10:55:55.942Z,65.46
2019-04-16T10:56:57.675Z,67.49
2019-04-16T10:58:47.195Z,64.43
2019-04-16T10:59:45.861Z,64.4
2019-04-16T11:00:44.428Z,72.68
2019-04-16T11:01:43.019Z,64.79
2019-04-16T11:02:41.772Z,69.12
2019-04-16T11:03:40.358Z,75.76
2019-04-16T11:04:42.958Z,74.61
2019-04-16T11:05:37.943Z,72.68
2019-04-16T11:06:36.756Z,77.5
2019-04-16T11:07:35.401Z,72.68
2019-04-16T11:08:34.045Z,69.41
2019-04-16T11:09:32.976Z,74.13
2019-04-16T11:10:31.413Z,69.89
2019-04-16T11:11:29.985Z,62.45
2019-04-16T11:12:28.539Z,61.49
2019-04-16T11:13:27.133Z,63.22
2019-04-16T11:14:25.682Z,64.47
2019-04-16T11:15:24.268Z,62.93
2019-04-16T11:16:23.053Z,61.07
2019-04-16T11:17:21.717Z,60.49
2019-04-16T11:18:20.270Z,61.65
2019-04-16T11:19:18.931Z,61.07
2019-04-16T11:20:17.756Z,68.92
2019-04-16T11:21:16.279Z,64.12
2019-04-16T11:22:14.888Z,62.19
2019-04-16T11:23:13.572Z,62.48
2019-04-16T11:24:12.141Z,68.02
2019-04-16T11:25:10.793Z,64.98
2019-04-16T11:26:09.508Z,68.15
2019-04-16T11:27:08.156Z,75.56
2019-04-16T11:28:06.664Z,73.15
2019-04-16T11:29:05.228Z,72.58
2019-04-16T11:30:03.799Z,72.77
2019-04-16T11:31:02.357Z,68.15
2019-04-16T11:32:00.930Z,69.02
2019-04-16T11:32:59.459Z,69.24
2019-04-16T11:33:58.044Z,72.9
2019-04-16T11:34:56.732Z,70.53
2019-04-16T11:35:55.348Z,66.3
2019-04-16T11:36:53.903Z,64.21
2019-04-16T11:37:52.505Z,73.36
2019-04-16T11:38:51.790Z,79.03
2019-04-16T11:39:50.427Z,77.65
2019-04-16T11:40:49.019Z,73.84
2019-04-16T11:41:47.706Z,73.65
2019-04-16T11:42:46.216Z,64.4
2019-04-16T11:43:44.850Z,61.61
2019-04-16T11:44:43.525Z,60.36
2019-04-16T11:45:42.101Z,65.56
2019-04-16T11:46:40.643Z,64.82
2019-04-16T11:47:39.171Z,60
2019-04-16T11:48:38.287Z,59.14
2019-04-16T11:49:36.449Z,62.12
2019-04-16T11:50:36.081Z,64.15
2019-04-16T11:51:33.884Z,67.9
2019-04-16T11:52:32.523Z,65.08
2019-04-16T11:53:31.444Z,62.96
2019-04-16T11:54:30.007Z,60.17
2019-04-16T11:55:28.659Z,61.65
2019-04-16T11:56:27.565Z,60.2
2019-04-16T11:57:26.296Z,59.23
2019-04-16T11:58:24.746Z,58.72
2019-04-16T11:59:23.309Z,57.5
2019-04-16T12:00:21.960Z,64.05
2019-04-16T12:01:22.962Z,64.5
2019-04-16T12:02:19.169Z,63.64
2019-04-16T12:03:17.785Z,64.98
2019-04-16T12:04:17.059Z,60.17
2019-04-16T12:05:15.196Z,61.42
2019-04-16T12:06:26.888Z,64.02
2019-04-16T12:07:12.408Z,61.04
2019-04-16T12:08:11.012Z,57.31
2019-04-16T12:09:09.671Z,56.82
2019-04-16T12:10:08.258Z,61.55
2019-04-16T12:11:06.851Z,61.93
2019-04-16T12:12:05.464Z,61.9
2019-04-16T12:13:04.412Z,57.89
2019-04-16T12:14:03.731Z,57.02
2019-04-16T12:15:01.272Z,58.27
2019-04-16T12:15:59.990Z,56.92
2019-04-16T12:16:58.564Z,57.98
2019-04-16T12:17:57.122Z,57.92
2019-04-16T12:18:55.721Z,62.41
2019-04-16T12:19:54.345Z,62.03
2019-04-16T12:20:53.092Z,59.91
2019-04-16T12:21:51.862Z,59.52
2019-04-16T12:22:50.442Z,62.9
2019-04-16T12:23:49.187Z,66.36
2019-04-16T12:24:47.708Z,67.81
2019-04-16T12:25:46.410Z,66.39
2019-04-16T12:26:44.936Z,60.58
2019-04-16T12:27:43.584Z,63.41
2019-04-16T12:28:43.175Z,63.12
2019-04-16T12:29:40.772Z,64.18
2019-04-16T12:30:39.405Z,64.37
2019-04-16T12:31:37.998Z,67.65
2019-04-16T12:32:36.562Z,71.56
2019-04-16T12:33:35.408Z,72.59
2019-04-16T12:34:33.848Z,73.46
2019-04-16T12:35:34.602Z,64.02
2019-04-16T12:36:30.997Z,61.71
2019-04-16T12:37:29.635Z,59.23
2019-04-16T12:38:28.244Z,60.3
2019-04-16T12:39:26.842Z,62.99
2019-04-16T12:40:25.452Z,63.67
2019-04-16T12:41:24.035Z,61.07
2019-04-16T12:42:22.574Z,65.69
2019-04-16T12:43:21.304Z,65.56
2019-04-16T12:44:23.919Z,66.68
2019-04-16T12:45:18.531Z,64.28
2019-04-16T12:46:17.000Z,64.21
2019-04-16T12:47:15.599Z,62.38
2019-04-16T12:48:14.238Z,62.83
2019-04-16T12:49:12.883Z,60.81
2019-04-16T12:50:11.569Z,61.04
2019-04-16T12:51:10.209Z,63.15
2019-04-16T12:52:09.057Z,62.38
2019-04-16T12:53:07.644Z,63.7
2019-04-16T12:54:06.177Z,64.18
2019-04-16T12:55:04.843Z,66.2
2019-04-16T12:56:07.297Z,64.76
2019-04-16T12:58:43.672Z,59.3
2019-04-16T12:59:42.328Z,59.14
2019-04-16T13:00:40.871Z,57.6
2019-04-16T13:01:39.630Z,57.21
2019-04-16T13:02:38.188Z,56.63
2019-04-16T13:03:36.738Z,55.29
2019-04-16T13:04:35.272Z,55.93
2019-04-16T13:05:33.843Z,56.51
2019-04-16T13:06:32.401Z,55.45
2019-04-16T13:07:31.128Z,55.83
2019-04-16T13:10:44.679Z,56.32
2019-04-16T13:11:43.355Z,56.51
2019-04-16T13:12:41.926Z,56.7
2019-04-16T13:13:40.527Z,56.6
2019-04-16T13:14:39.100Z,56.32
2019-04-16T13:15:37.768Z,55.93
2019-04-16T13:16:36.351Z,56.25
2019-04-16T13:17:34.959Z,55.16